Terminal Aerodrome Forecast
Issued by NWS

Home | Current Version | Previous Version | Text Only | Print | Product List | Glossary On
Versions: 1 2 3 4 5 6 7 8 9 10 11 12 13 14 15 16 17 18 19
000
FTUS44 KSJT 211134
TAFSOA
TAF
KSOA 211134Z 2112/2212 VRB06KT P6SM SCT007 SCT150
     FM211500 21010G16KT P6SM SCT150
     FM211800 24020G26KT P6SM BKN150
     FM220000 24012G18KT P6SM OVC150
     FM220600 26025G35KT P6SM SKC=

USA.gov is the U.S. government's official web portal to all federal, state and local government web resources and services.